createdAt,value
2019-01-15T00:00:57.466Z,2.73
2019-01-15T00:03:27.409Z,2.27
2019-01-15T00:05:57.301Z,2.20
2019-01-15T00:08:27.185Z,2.07
2019-01-15T00:10:57.030Z,2.20
2019-01-15T00:13:26.312Z,2.50
2019-01-15T00:15:56.062Z,2.40
2019-01-15T00:18:25.998Z,2.90
2019-01-15T00:20:56.383Z,2.87
2019-01-15T00:23:26.300Z,3.07
2019-01-15T00:25:56.253Z,2.97
2019-01-15T00:28:26.225Z,2.37
2019-01-15T00:30:55.650Z,3.30
2019-01-15T00:33:25.534Z,2.60
2019-01-15T00:35:55.458Z,2.30
2019-01-15T00:38:24.833Z,2.40
2019-01-15T00:40:54.082Z,2.00
2019-01-15T00:43:23.294Z,2.67
2019-01-15T00:45:53.173Z,2.53
2019-01-15T00:48:22.509Z,2.90
2019-01-15T00:50:52.292Z,3.10
2019-01-15T00:53:22.140Z,2.80
2019-01-15T00:55:51.521Z,2.80
2019-01-15T00:58:20.751Z,3.10
2019-01-15T01:00:50.592Z,2.83
2019-01-15T01:03:19.817Z,2.87
2019-01-15T01:05:49.592Z,2.50
2019-01-15T01:08:18.899Z,2.80
2019-01-15T01:10:48.205Z,2.77
2019-01-15T01:13:17.609Z,2.57
2019-01-15T01:15:47.365Z,2.50
2019-01-15T01:18:17.290Z,2.60
2019-01-15T01:20:47.163Z,2.27
2019-01-15T01:23:16.473Z,2.70
2019-01-15T01:25:46.613Z,2.57
2019-01-15T01:28:15.865Z,2.90
2019-01-15T01:30:45.729Z,2.13
2019-01-15T01:33:15.640Z,3.33
2019-01-15T01:35:45.497Z,2.90
2019-01-15T01:38:14.750Z,2.93
2019-01-15T01:40:43.936Z,3.57
2019-01-15T01:43:13.182Z,2.43
2019-01-15T01:45:43.218Z,2.27
2019-01-15T01:48:12.509Z,2.50
2019-01-15T01:50:42.389Z,3.83
2019-01-15T01:53:11.704Z,4.00
2019-01-15T01:55:41.603Z,3.13
2019-01-15T01:58:11.590Z,3.93
2019-01-15T02:00:40.952Z,3.63
2019-01-15T02:03:10.771Z,3.53
2019-01-15T02:05:40.137Z,3.53
2019-01-15T02:08:09.916Z,3.50
2019-01-15T02:10:39.311Z,3.97
2019-01-15T02:13:08.595Z,1.73
2019-01-15T02:15:37.898Z,2.83
2019-01-15T02:18:07.717Z,2.90
2019-01-15T02:20:37.696Z,3.47
2019-01-15T02:23:07.004Z,2.87
2019-01-15T02:25:36.815Z,3.43
2019-01-15T02:28:06.742Z,3.50
2019-01-15T02:30:36.853Z,3.10
2019-01-15T02:33:06.098Z,2.83
2019-01-15T02:35:36.209Z,3.63
2019-01-15T02:38:05.733Z,3.20
2019-01-15T02:40:35.498Z,3.00
2019-01-15T02:43:04.772Z,3.20
2019-01-15T02:45:34.607Z,3.37
2019-01-15T02:48:04.915Z,2.73
2019-01-15T02:50:34.773Z,2.53
2019-01-15T02:53:04.632Z,3.03
2019-01-15T02:55:34.534Z,3.10
2019-01-15T02:58:03.847Z,3.43
2019-01-15T03:00:33.074Z,2.73
2019-01-15T03:03:03.094Z,3.53
2019-01-15T03:05:32.390Z,3.57
2019-01-15T03:08:01.663Z,3.90
2019-01-15T03:10:30.889Z,3.10
2019-01-15T03:13:00.639Z,3.33
2019-01-15T03:15:29.840Z,3.50
2019-01-15T03:17:59.092Z,3.40
2019-01-15T03:20:28.930Z,3.10
2019-01-15T03:22:58.882Z,2.60
2019-01-15T03:25:28.810Z,3.33
2019-01-15T03:27:58.743Z,3.47
2019-01-15T03:30:28.869Z,3.83
2019-01-15T03:32:58.807Z,2.80
2019-01-15T03:35:28.112Z,3.23
2019-01-15T03:37:57.332Z,3.80
2019-01-15T03:40:27.963Z,3.43
2019-01-15T03:43:03.430Z,3.50
2019-01-15T03:45:28.114Z,3.03
2019-01-15T03:47:57.913Z,3.43
2019-01-15T03:50:28.015Z,3.17
2019-01-15T03:52:57.432Z,3.23
2019-01-15T03:55:26.577Z,3.43
2019-01-15T03:57:56.357Z,3.57
2019-01-15T04:00:26.353Z,3.60
2019-01-15T04:02:57.306Z,2.30
2019-01-15T04:05:27.444Z,1.87
2019-01-15T04:08:00.806Z,2.40
2019-01-15T04:10:30.812Z,1.80
2019-01-15T04:13:00.134Z,1.60
2019-01-15T04:15:29.946Z,2.90
2019-01-15T04:17:59.914Z,1.50
2019-01-15T04:20:29.815Z,1.30
2019-01-15T04:22:59.757Z,1.30
2019-01-15T04:25:28.986Z,1.50
2019-01-15T04:27:58.213Z,1.60
2019-01-15T04:30:28.100Z,2.07
2019-01-15T04:32:57.946Z,1.93
2019-01-15T04:35:27.265Z,2.13
2019-01-15T04:37:56.403Z,2.60
2019-01-15T04:40:26.533Z,2.33
2019-01-15T04:42:55.783Z,2.53
2019-01-15T04:45:25.997Z,2.50
2019-01-15T04:47:55.272Z,2.57
2019-01-15T04:50:25.173Z,2.40
2019-01-15T04:53:00.253Z,2.90
2019-01-15T04:55:29.581Z,2.60
2019-01-15T04:57:59.324Z,3.40
2019-01-15T05:00:28.563Z,2.73
2019-01-15T05:03:01.869Z,2.60
2019-01-15T05:05:31.185Z,3.77
2019-01-15T05:08:00.642Z,3.40
2019-01-15T05:10:29.869Z,2.90
2019-01-15T05:12:59.601Z,3.00
2019-01-15T05:15:29.530Z,2.97
2019-01-15T05:17:59.455Z,2.83
2019-01-15T05:20:29.362Z,2.53
2019-01-15T05:22:59.254Z,2.03
2019-01-15T05:25:28.576Z,2.30
2019-01-15T05:27:57.797Z,1.93
2019-01-15T05:30:29.665Z,1.70
2019-01-15T05:32:58.902Z,2.13
2019-01-15T05:35:28.772Z,2.00
2019-01-15T05:37:58.665Z,2.07
2019-01-15T05:40:28.628Z,2.10
2019-01-15T05:42:58.145Z,2.13
2019-01-15T05:45:32.508Z,1.93
2019-01-15T05:48:24.175Z,2.17
2019-01-15T05:51:14.111Z,2.00
2019-01-15T05:53:43.958Z,2.47
2019-01-15T05:56:13.904Z,1.97
2019-01-15T05:58:43.842Z,2.20
2019-01-15T06:01:13.770Z,1.80
2019-01-15T06:03:43.630Z,2.10
2019-01-15T06:06:12.947Z,2.30
2019-01-15T06:08:42.805Z,2.40
2019-01-15T06:11:12.766Z,2.10
2019-01-15T06:13:42.731Z,2.60
2019-01-15T06:16:12.923Z,2.10
2019-01-15T06:18:42.205Z,2.20
2019-01-15T06:21:12.086Z,2.47
2019-01-15T06:23:42.044Z,2.43
2019-01-15T06:26:12.022Z,2.30
2019-01-15T06:28:42.258Z,2.40
2019-01-15T06:31:12.617Z,2.73
2019-01-15T06:33:42.461Z,3.13
2019-01-15T06:36:11.745Z,2.03
2019-01-15T06:38:41.573Z,2.50
2019-01-15T06:41:10.924Z,3.30
2019-01-15T06:43:40.682Z,2.90
2019-01-15T06:46:10.641Z,2.97
2019-01-15T06:48:40.493Z,3.00
2019-01-15T06:51:09.816Z,3.60
2019-01-15T06:53:39.717Z,3.13
2019-01-15T06:56:09.146Z,2.57
2019-01-15T06:58:39.005Z,3.57
2019-01-15T07:01:08.992Z,3.10
2019-01-15T07:03:39.245Z,3.13
2019-01-15T07:06:08.485Z,3.13
2019-01-15T07:08:37.687Z,3.27
2019-01-15T07:11:06.941Z,3.17
2019-01-15T07:13:36.154Z,3.40
2019-01-15T07:16:06.497Z,3.23
2019-01-15T07:18:36.453Z,3.67
2019-01-15T07:21:14.073Z,3.33
2019-01-15T07:23:44.278Z,3.80
2019-01-15T07:26:15.229Z,2.80
2019-01-15T07:28:45.230Z,4.17
2019-01-15T07:31:14.491Z,3.17
2019-01-15T07:33:43.733Z,2.77
2019-01-15T07:36:13.503Z,3.20
2019-01-15T07:38:43.489Z,3.50
2019-01-15T07:41:13.446Z,2.83
2019-01-15T07:43:42.778Z,3.60
2019-01-15T07:46:12.634Z,3.40
2019-01-15T07:48:42.738Z,3.60
2019-01-15T07:51:12.649Z,3.23
2019-01-15T07:53:42.574Z,3.67
2019-01-15T07:56:11.972Z,3.30
2019-01-15T07:58:41.941Z,2.93
2019-01-15T08:01:11.786Z,2.73
2019-01-15T08:03:41.652Z,2.60
2019-01-15T08:06:10.993Z,2.63
2019-01-15T08:08:40.183Z,2.83
2019-01-15T08:11:09.420Z,2.40
2019-01-15T08:13:38.945Z,2.00
2019-01-15T08:16:08.853Z,2.63
2019-01-15T08:18:38.836Z,2.13
2019-01-15T08:21:08.173Z,2.10
2019-01-15T08:23:38.021Z,2.43
2019-01-15T08:26:07.929Z,1.97
2019-01-15T08:28:37.809Z,2.37
2019-01-15T08:31:07.713Z,2.00
2019-01-15T08:33:36.973Z,2.43
2019-01-15T08:36:06.229Z,2.10
2019-01-15T08:38:36.087Z,2.30
2019-01-15T08:41:06.019Z,1.70
2019-01-15T08:43:35.989Z,1.87
2019-01-15T08:46:05.521Z,2.87
2019-01-15T08:48:36.305Z,1.57
2019-01-15T08:51:07.630Z,1.40
2019-01-15T08:53:38.065Z,1.90
2019-01-15T08:56:09.739Z,1.90
2019-01-15T08:58:39.669Z,1.97
2019-01-15T09:01:09.100Z,2.00
2019-01-15T09:03:38.273Z,1.90
2019-01-15T09:06:07.716Z,1.90
2019-01-15T09:08:38.132Z,2.17
2019-01-15T09:11:08.054Z,1.67
2019-01-15T09:13:37.568Z,2.03
2019-01-15T09:16:06.840Z,2.17
2019-01-15T09:18:36.842Z,1.93
2019-01-15T09:21:06.809Z,1.70
2019-01-15T09:23:38.376Z,1.40
2019-01-15T09:26:08.410Z,1.80
2019-01-15T09:28:38.324Z,1.60
2019-01-15T09:31:07.685Z,1.70
2019-01-15T09:33:37.522Z,1.70
2019-01-15T09:36:06.888Z,2.00
2019-01-15T09:38:36.705Z,2.10
2019-01-15T09:41:06.706Z,1.70
2019-01-15T09:43:36.049Z,1.47
2019-01-15T09:46:05.281Z,1.63
2019-01-15T09:48:36.123Z,1.87
2019-01-15T09:51:05.386Z,1.50
2019-01-15T09:53:35.205Z,1.63
2019-01-15T09:56:04.814Z,2.00
2019-01-15T09:58:33.989Z,1.63
2019-01-15T10:01:03.305Z,1.40
2019-01-15T10:03:33.215Z,2.03
2019-01-15T10:06:03.163Z,1.60
2019-01-15T10:08:33.317Z,1.97
2019-01-15T10:11:03.346Z,7.13
2019-01-15T10:13:33.177Z,2.23
2019-01-15T10:16:02.505Z,1.50
2019-01-15T10:18:32.358Z,1.43
2019-01-15T10:21:02.313Z,1.40
2019-01-15T10:23:32.226Z,1.50
2019-01-15T10:26:01.605Z,0.97
2019-01-15T10:28:31.426Z,1.23
2019-01-15T10:31:41.115Z,1.37
2019-01-15T10:34:16.234Z,1.07
2019-01-15T10:36:44.449Z,1.13
2019-01-15T10:39:15.017Z,1.33
2019-01-15T10:41:45.022Z,1.10
2019-01-15T10:44:14.454Z,0.90
2019-01-15T10:46:44.341Z,1.40
2019-01-15T10:49:13.596Z,1.20
2019-01-15T10:51:43.449Z,1.90
2019-01-15T10:54:13.358Z,2.03
2019-01-15T10:56:43.263Z,2.70
2019-01-15T10:59:12.542Z,2.00
2019-01-15T11:01:41.801Z,1.87
2019-01-15T11:04:11.037Z,2.00
2019-01-15T11:06:40.260Z,1.70
2019-01-15T11:09:09.998Z,1.10
2019-01-15T11:11:39.231Z,1.30
2019-01-15T11:14:09.929Z,1.20
2019-01-15T11:16:39.137Z,1.70
2019-01-15T11:19:08.986Z,1.00
2019-01-15T11:21:38.295Z,1.03
2019-01-15T11:24:07.505Z,1.00
2019-01-15T11:26:37.274Z,1.10
2019-01-15T11:29:06.514Z,1.00
2019-01-15T11:31:36.358Z,0.97
2019-01-15T11:34:05.843Z,1.10
2019-01-15T11:36:35.705Z,0.97
2019-01-15T11:39:09.206Z,1.40
2019-01-15T11:41:38.661Z,0.90
2019-01-15T11:44:09.619Z,0.90
2019-01-15T11:46:39.025Z,0.93
2019-01-15T11:49:08.899Z,1.00
2019-01-15T11:51:38.209Z,1.40
2019-01-15T11:54:07.471Z,0.90
2019-01-15T11:56:36.715Z,1.10
2019-01-15T11:59:05.897Z,1.00
2019-01-15T12:01:42.825Z,0.83
2019-01-15T12:04:31.633Z,1.03
2019-01-15T12:07:23.775Z,0.90
2019-01-15T12:10:12.782Z,1.30
2019-01-15T12:12:53.444Z,1.07
2019-01-15T12:15:38.230Z,0.80
2019-01-15T12:18:26.287Z,1.30
2019-01-15T12:21:17.176Z,1.00
2019-01-15T12:24:02.383Z,0.90
2019-01-15T12:26:51.301Z,1.23
2019-01-15T12:29:38.956Z,1.00
2019-01-15T12:32:25.835Z,1.23
2019-01-15T12:35:05.615Z,1.00
2019-01-15T12:37:59.721Z,1.10
2019-01-15T12:40:53.918Z,1.17
2019-01-15T12:43:54.338Z,1.37
2019-01-15T12:46:55.178Z,0.93
2019-01-15T12:49:42.403Z,1.20
2019-01-15T12:52:34.475Z,0.90
2019-01-15T12:55:16.729Z,1.37
2019-01-15T12:58:04.148Z,1.10
2019-01-15T13:01:03.977Z,1.27
2019-01-15T13:03:51.845Z,1.30
2019-01-15T13:06:40.126Z,1.30
2019-01-15T13:09:41.374Z,1.20
2019-01-15T13:12:25.334Z,1.80
2019-01-15T13:15:34.846Z,1.37
2019-01-15T13:18:40.966Z,1.47
2019-01-15T13:21:28.498Z,1.20
2019-01-15T13:24:27.105Z,1.63
2019-01-15T13:27:08.461Z,1.30
2019-01-15T13:29:56.705Z,1.67
2019-01-15T13:32:43.826Z,1.53
2019-01-15T13:35:31.226Z,1.70
2019-01-15T13:38:25.958Z,2.10
2019-01-15T13:41:13.485Z,1.90
2019-01-15T13:44:01.025Z,1.83
2019-01-15T13:46:38.662Z,1.90
2019-01-15T13:49:18.541Z,2.10
2019-01-15T13:52:00.174Z,2.20
2019-01-15T13:54:47.686Z,2.10
2019-01-15T13:57:35.890Z,1.80
2019-01-15T14:00:27.637Z,2.03
2019-01-15T14:03:19.628Z,1.93
2019-01-15T14:06:20.313Z,2.20
2019-01-15T14:09:22.944Z,2.10
2019-01-15T14:12:10.568Z,1.67
2019-01-15T14:15:12.697Z,2.07
2019-01-15T14:18:16.608Z,2.13
2019-01-15T14:21:22.845Z,2.23
2019-01-15T14:24:10.021Z,2.30
2019-01-15T14:27:13.598Z,2.43
2019-01-15T14:30:01.108Z,2.70
2019-01-15T14:32:47.268Z,2.43
2019-01-15T14:35:38.505Z,2.53
2019-01-15T14:38:26.786Z,2.40
2019-01-15T14:41:33.325Z,2.77
2019-01-15T14:44:19.051Z,2.57
2019-01-15T14:47:10.957Z,3.07
2019-01-15T14:50:06.177Z,2.60
2019-01-15T14:53:03.608Z,3.07
2019-01-15T14:55:44.192Z,2.90
2019-01-15T14:58:32.716Z,3.13
2019-01-15T15:01:20.240Z,2.43
2019-01-15T15:04:07.601Z,3.83
2019-01-15T15:07:14.973Z,2.60
2019-01-15T15:10:03.856Z,3.23
2019-01-15T15:13:01.942Z,2.70
2019-01-15T15:15:43.867Z,2.33
2019-01-15T15:18:38.742Z,2.33
2019-01-15T15:21:22.575Z,3.60
2019-01-15T15:24:16.832Z,2.90
2019-01-15T15:27:04.541Z,2.87
2019-01-15T15:29:43.232Z,3.03
2019-01-15T15:32:30.245Z,2.87
2019-01-15T15:35:21.658Z,3.10
2019-01-15T15:38:08.831Z,2.67
2019-01-15T15:40:56.037Z,3.47
2019-01-15T15:43:53.809Z,3.30
2019-01-15T15:46:50.372Z,2.73
2019-01-15T15:49:34.306Z,3.13
2019-01-15T15:52:26.320Z,2.80
2019-01-15T15:55:30.322Z,2.80
2019-01-15T15:58:21.981Z,3.13
2019-01-15T16:01:28.621Z,3.30
2019-01-15T16:04:07.883Z,3.50
2019-01-15T16:06:55.382Z,3.97
2019-01-15T16:09:43.023Z,3.60
2019-01-15T16:12:33.913Z,4.50
2019-01-15T16:15:22.369Z,3.87
2019-01-15T16:18:10.173Z,4.13
2019-01-15T16:20:57.242Z,4.00
2019-01-15T16:23:44.736Z,3.30
2019-01-15T16:26:39.646Z,3.93
2019-01-15T16:29:46.134Z,3.57
2019-01-15T16:32:33.712Z,3.43
2019-01-15T16:35:21.049Z,3.47
2019-01-15T16:38:02.518Z,3.80
2019-01-15T16:40:51.378Z,3.80
2019-01-15T16:43:35.612Z,3.80
2019-01-15T16:46:26.485Z,3.83
2019-01-15T16:49:23.746Z,3.80
2019-01-15T16:52:19.954Z,3.50
2019-01-15T16:55:01.447Z,4.17
2019-01-15T16:57:48.523Z,4.40
2019-01-15T17:00:43.410Z,3.90
2019-01-15T17:03:28.642Z,3.33
2019-01-15T17:06:18.065Z,3.03
2019-01-15T17:09:05.273Z,3.87
2019-01-15T17:11:53.436Z,3.87
2019-01-15T17:14:40.374Z,3.60
2019-01-15T17:17:29.079Z,3.30
2019-01-15T17:20:20.770Z,3.30
2019-01-15T17:23:12.042Z,3.97
2019-01-15T17:26:06.612Z,4.37
2019-01-15T17:29:13.687Z,3.57
2019-01-15T17:32:00.593Z,2.90
2019-01-15T17:34:55.610Z,3.63
2019-01-15T17:37:43.279Z,3.60
2019-01-15T17:40:42.654Z,2.90
2019-01-15T17:43:30.002Z,3.63
2019-01-15T17:46:16.683Z,4.47
2019-01-15T17:49:10.969Z,3.83
2019-01-15T17:52:03.069Z,3.63
2019-01-15T17:55:01.142Z,3.47
2019-01-15T17:57:48.477Z,2.73
2019-01-15T18:00:55.531Z,3.03
2019-01-15T18:03:54.463Z,2.67
2019-01-15T18:06:42.744Z,3.13
2019-01-15T18:09:31.376Z,4.03
2019-01-15T18:12:20.313Z,3.30
2019-01-15T18:15:06.117Z,3.10
2019-01-15T18:17:56.317Z,3.30
2019-01-15T18:20:48.043Z,4.10
2019-01-15T18:23:35.577Z,3.13
2019-01-15T18:26:24.637Z,4.30
2019-01-15T18:29:17.133Z,4.57
2019-01-15T18:32:20.831Z,4.20
2019-01-15T18:35:12.403Z,3.60
2019-01-15T18:38:07.584Z,4.60
2019-01-15T18:40:55.241Z,3.97
2019-01-15T18:43:43.077Z,4.37
2019-01-15T18:46:34.275Z,3.83
2019-01-15T18:49:16.235Z,3.97
2019-01-15T18:52:17.144Z,4.20
2019-01-15T18:55:08.429Z,4.13
2019-01-15T18:57:55.944Z,3.97
2019-01-15T19:00:39.114Z,3.60
2019-01-15T19:03:41.394Z,4.53
2019-01-15T19:06:30.185Z,3.93
2019-01-15T19:09:11.380Z,3.53
2019-01-15T19:11:59.064Z,4.00
2019-01-15T19:14:39.223Z,4.17
2019-01-15T19:17:27.419Z,4.53
2019-01-15T19:20:19.141Z,4.63
2019-01-15T19:23:09.781Z,3.90
2019-01-15T19:25:52.940Z,4.07
2019-01-15T19:28:59.462Z,4.57
2019-01-15T19:31:51.849Z,3.90
2019-01-15T19:34:55.049Z,3.97
2019-01-15T19:37:46.088Z,3.90
2019-01-15T19:40:33.608Z,4.50
2019-01-15T19:43:15.568Z,3.53
2019-01-15T19:46:16.769Z,4.70
2019-01-15T19:49:05.637Z,3.83
2019-01-15T19:51:54.849Z,4.00
2019-01-15T19:54:43.625Z,4.63
2019-01-15T19:57:22.614Z,3.97
2019-01-15T20:00:29.146Z,4.03
2019-01-15T20:03:15.961Z,4.20
2019-01-15T20:06:16.305Z,3.77
2019-01-15T20:09:03.738Z,3.60
2019-01-15T20:11:51.714Z,4.17
2019-01-15T20:14:43.383Z,4.37
2019-01-15T20:17:32.716Z,3.90
2019-01-15T20:20:20.230Z,3.90
2019-01-15T20:23:20.892Z,5.40
2019-01-15T20:26:01.099Z,4.47
2019-01-15T20:28:49.338Z,4.00
2019-01-15T20:31:43.862Z,4.00
2019-01-15T20:34:51.046Z,5.13
2019-01-15T20:37:40.039Z,4.30
2019-01-15T20:40:40.142Z,4.67
2019-01-15T20:43:19.999Z,4.23
2019-01-15T20:46:08.445Z,5.00
2019-01-15T20:48:59.849Z,4.30
2019-01-15T20:52:01.151Z,4.30
2019-01-15T20:54:55.509Z,3.93
2019-01-15T20:57:48.128Z,4.67
2019-01-15T21:00:43.049Z,4.40
2019-01-15T21:03:34.697Z,4.50
2019-01-15T21:06:10.986Z,4.63
2019-01-15T21:09:02.207Z,5.27
2019-01-15T21:12:09.271Z,3.87
2019-01-15T21:14:57.666Z,4.57
2019-01-15T21:17:54.810Z,4.53
2019-01-15T21:20:41.918Z,5.07
2019-01-15T21:23:42.732Z,5.10
2019-01-15T21:26:34.216Z,5.00
2019-01-15T21:29:23.567Z,5.97
2019-01-15T21:32:24.395Z,5.20
2019-01-15T21:35:15.968Z,5.90
2019-01-15T21:38:10.646Z,6.27
2019-01-15T21:40:52.389Z,5.40
2019-01-15T21:43:59.710Z,5.53
2019-01-15T21:46:57.338Z,4.93
2019-01-15T21:49:40.854Z,5.57
2019-01-15T21:52:47.714Z,6.23
2019-01-15T21:55:41.661Z,7.10
2019-01-15T21:58:33.366Z,5.77
2019-01-15T22:01:20.922Z,5.93
2019-01-15T22:04:08.203Z,7.07
2019-01-15T22:07:05.845Z,7.33
2019-01-15T22:10:12.975Z,6.10
2019-01-15T22:13:16.906Z,5.60
2019-01-15T22:16:14.788Z,6.47
2019-01-15T22:19:04.322Z,6.23
2019-01-15T22:21:52.066Z,6.10
2019-01-15T22:24:56.143Z,6.43
2019-01-15T22:27:46.213Z,6.53
2019-01-15T22:30:38.077Z,6.10
2019-01-15T22:33:16.909Z,6.20
2019-01-15T22:36:04.464Z,6.17
2019-01-15T22:38:55.964Z,6.57
2019-01-15T22:41:53.616Z,6.07
2019-01-15T22:44:48.738Z,5.90
2019-01-15T22:47:40.278Z,6.33
2019-01-15T22:50:28.498Z,6.23
2019-01-15T22:53:17.330Z,5.90
2019-01-15T22:55:57.414Z,6.67
2019-01-15T22:58:39.908Z,7.53
2019-01-15T23:01:29.906Z,6.47
2019-01-15T23:04:17.679Z,7.00
2019-01-15T23:07:12.088Z,6.20
2019-01-15T23:09:55.262Z,6.63
2019-01-15T23:12:42.757Z,5.63
2019-01-15T23:15:34.139Z,6.30
2019-01-15T23:18:21.787Z,7.23
2019-01-15T23:21:09.818Z,7.20
2019-01-15T23:23:57.538Z,6.60
2019-01-15T23:26:45.543Z,6.00
2019-01-15T23:29:40.565Z,6.87
2019-01-15T23:32:32.291Z,6.47
2019-01-15T23:35:20.663Z,6.57
2019-01-15T23:38:00.279Z,6.33
2019-01-15T23:41:04.440Z,6.97
2019-01-15T23:43:59.507Z,7.30
2019-01-15T23:46:44.172Z,6.60
2019-01-15T23:49:28.874Z,6.13
2019-01-15T23:52:17.809Z,5.50
2019-01-15T23:55:06.265Z,6.83
2019-01-15T23:58:09.742Z,6.73
